Terminal Aerodrome Forecast
Issued by NWS

Home | Current Version | Previous Version | Graphics & Text | Print | Product List | Glossary On
Versions: 1 2 3 4 5 6 7 8 9 10 11 12 13
503
FTUS43 KMPX 120520
TAFRNH
TAF
KRNH 120520Z 1206/1306 28006KT P6SM -SN SCT025 OVC035
     FM120800 30007KT P6SM SCT030 OVC050
     FM121200 32011KT P6SM SCT030
     FM121500 33016G23KT P6SM SCT040
     FM122300 31008KT P6SM SKC=

USA.gov is the U.S. government's official web portal to all federal, state and local government web resources and services.